Time;durP1;ratioP1;P1;durP2;ratioP2;P2;SDS_P1;SDS_P2;PMS_P1;PMS_P2;Temp;Humidity;BMP_temperature;BMP_pressure;BME280_temperature;BME280_humidity;BME280_pressure;Samples;Min_cycle;Max_cycle;Signal;HPM_P1;HPM_P2
2023/08/23 00:01:21;;;;;;;10.40;8.50;;;;;;;;;;5073849;28;20538;-68
2023/08/23 00:03:48;;;;;;;13.77;8.07;;;;;;;;;;5073667;28;20479;-68
2023/08/23 00:06:15;;;;;;;9.07;8.03;;;;;;;;;;5073486;28;20975;-68
2023/08/23 00:08:42;;;;;;;12.80;7.80;;;;;;;;;;5073956;28;20520;-68
2023/08/23 00:11:10;;;;;;;11.23;9.10;;;;;;;;;;5073664;28;20569;-68
2023/08/23 00:13:38;;;;;;;11.50;7.60;;;;;;;;;;5073458;28;20440;-68
2023/08/23 00:16:06;;;;;;;14.80;8.30;;;;;;;;;;5073687;28;20446;-68
2023/08/23 00:18:33;;;;;;;9.07;7.10;;;;;;;;;;5073306;28;20518;-68
2023/08/23 00:21:00;;;;;;;10.40;7.90;;;;;;;;;;5073522;28;20785;-68
2023/08/23 00:23:27;;;;;;;9.97;7.50;;;;;;;;;;5073775;28;20543;-68
2023/08/23 00:25:54;;;;;;;13.63;8.17;;;;;;;;;;5073417;28;20434;-68
2023/08/23 00:28:22;;;;;;;11.70;8.23;;;;;;;;;;5073801;28;20545;-67
2023/08/23 00:30:51;;;;;;;9.20;7.87;;;;;;;;;;5073289;28;20964;-68
2023/08/23 00:33:18;;;;;;;10.33;7.83;;;;;;;;;;5073518;28;20533;-68
2023/08/23 00:35:46;;;;;;;13.13;7.83;;;;;;;;;;5073398;28;20522;-68
2023/08/23 00:38:13;;;;;;;14.40;10.00;;;;;;;;;;5073835;28;20450;-68
2023/08/23 00:40:40;;;;;;;14.33;8.10;;;;;;;;;;5073241;28;20442;-68
2023/08/23 00:43:07;;;;;;;13.73;8.20;;;;;;;;;;5072518;28;20444;-68
2023/08/23 00:45:35;;;;;;;11.40;7.77;;;;;;;;;;5073255;28;20864;-68
2023/08/23 00:48:04;;;;;;;11.43;8.63;;;;;;;;;;5073969;28;20786;-68
2023/08/23 00:50:32;;;;;;;14.07;8.47;;;;;;;;;;5072862;28;20451;-68
2023/08/23 00:52:59;;;;;;;11.83;7.90;;;;;;;;;;5073340;28;20585;-68
2023/08/23 00:55:26;;;;;;;10.27;8.30;;;;;;;;;;5072967;28;20436;-68
2023/08/23 00:57:54;;;;;;;8.30;7.53;;;;;;;;;;5073075;28;20445;-68
2023/08/23 01:00:21;;;;;;;11.00;8.23;;;;;;;;;;5073799;28;20484;-68
2023/08/23 01:02:48;;;;;;;9.10;8.20;;;;;;;;;;5072743;28;20457;-68
2023/08/23 01:05:17;;;;;;;10.63;9.00;;;;;;;;;;5072966;28;20981;-67
2023/08/23 01:07:47;;;;;;;9.60;8.20;;;;;;;;;;5072649;28;20526;-68
2023/08/23 01:10:30;;;;;;;9.87;8.50;;;;;;;;;;5073618;28;20500;-68
2023/08/23 01:13:00;;;;;;;9.20;7.80;;;;;;;;;;5072936;28;20467;-68
2023/08/23 01:15:28;;;;;;;9.53;8.53;;;;;;;;;;5073634;28;20821;-68
2023/08/23 01:17:55;;;;;;;11.50;8.50;;;;;;;;;;5072942;28;20532;-68
2023/08/23 01:20:24;;;;;;;12.47;9.20;;;;;;;;;;5073034;28;20438;-68
2023/08/23 01:22:53;;;;;;;9.33;8.33;;;;;;;;;;5072681;28;20493;-68
2023/08/23 01:25:22;;;;;;;10.17;8.03;;;;;;;;;;5073272;28;20825;-68
2023/08/23 01:27:49;;;;;;;16.00;9.10;;;;;;;;;;5072421;28;20440;-69
2023/08/23 01:30:18;;;;;;;9.40;8.30;;;;;;;;;;5073585;28;20884;-68
2023/08/23 01:32:47;;;;;;;9.50;8.13;;;;;;;;;;5072335;28;20974;-68
2023/08/23 01:35:16;;;;;;;8.67;7.87;;;;;;;;;;5072513;28;20979;-68
2023/08/23 01:37:45;;;;;;;8.23;7.23;;;;;;;;;;5072290;28;20447;-68
2023/08/23 01:40:12;;;;;;;9.00;8.20;;;;;;;;;;5072418;28;20434;-68
2023/08/23 01:42:41;;;;;;;10.07;7.80;;;;;;;;;;5072328;28;20448;-68
2023/08/23 01:45:09;;;;;;;10.37;8.50;;;;;;;;;;5072774;28;20537;-68
2023/08/23 01:47:36;;;;;;;9.00;8.20;;;;;;;;;;5072744;28;20532;-68
2023/08/23 01:50:04;;;;;;;10.07;8.97;;;;;;;;;;5072686;28;20437;-68
2023/08/23 01:52:31;;;;;;;9.10;8.20;;;;;;;;;;5072650;28;20849;-68
2023/08/23 01:54:58;;;;;;;11.47;8.90;;;;;;;;;;5072709;28;20568;-68
2023/08/23 01:57:25;;;;;;;9.30;8.40;;;;;;;;;;5076192;28;20869;-68
2023/08/23 01:59:56;;;;;;;18.87;9.13;;;;;;;;;;5076823;28;20525;-68
2023/08/23 02:02:23;;;;;;;12.73;8.87;;;;;;;;;;5075988;28;20497;-68
2023/08/23 02:04:50;;;;;;;11.30;9.67;;;;;;;;;;5076280;28;20436;-68
2023/08/23 02:07:17;;;;;;;10.77;8.93;;;;;;;;;;5075995;28;20468;-68
2023/08/23 02:09:44;;;;;;;10.20;9.20;;;;;;;;;;5075795;28;20452;-68
2023/08/23 02:12:12;;;;;;;10.50;9.47;;;;;;;;;;5076226;28;20828;-68
2023/08/23 02:14:39;;;;;;;10.77;9.50;;;;;;;;;;5076002;28;20481;-68
2023/08/23 02:17:07;;;;;;;15.27;10.20;;;;;;;;;;5076131;28;20853;-68
2023/08/23 02:19:35;;;;;;;10.37;9.30;;;;;;;;;;5076018;28;20450;-68
2023/08/23 02:22:02;;;;;;;15.90;10.30;;;;;;;;;;5075391;28;20486;-68
2023/08/23 02:24:29;;;;;;;11.30;10.23;;;;;;;;;;5076690;28;20461;-67
2023/08/23 02:26:56;;;;;;;10.87;9.67;;;;;;;;;;5075913;28;20529;-68
2023/08/23 02:29:23;;;;;;;10.70;9.60;;;;;;;;;;5075851;28;20447;-68
2023/08/23 02:31:50;;;;;;;11.27;9.97;;;;;;;;;;5075038;28;20479;-68
2023/08/23 02:34:19;;;;;;;14.67;10.57;;;;;;;;;;5075767;28;20531;-68
2023/08/23 02:36:46;;;;;;;14.70;10.13;;;;;;;;;;5075030;28;20808;-69
2023/08/23 02:39:13;;;;;;;10.40;9.40;;;;;;;;;;5075387;28;20528;-68
2023/08/23 02:41:41;;;;;;;11.50;9.43;;;;;;;;;;5075450;28;20439;-68
2023/08/23 02:44:09;;;;;;;13.97;10.57;;;;;;;;;;5074906;28;20442;-68
2023/08/23 02:46:36;;;;;;;11.47;10.33;;;;;;;;;;5074913;28;20997;-68
2023/08/23 02:49:03;;;;;;;12.47;10.00;;;;;;;;;;5075185;28;20550;-68
2023/08/23 02:51:31;;;;;;;10.77;9.33;;;;;;;;;;5075150;28;20442;-68
2023/08/23 02:53:59;;;;;;;11.13;9.93;;;;;;;;;;5074684;28;20472;-68
2023/08/23 02:56:26;;;;;;;10.70;9.57;;;;;;;;;;5075370;28;20439;-68
2023/08/23 02:58:54;;;;;;;12.03;9.33;;;;;;;;;;5074990;28;20849;-67
2023/08/23 03:01:21;;;;;;;12.03;9.60;;;;;;;;;;5074991;28;20446;-68
2023/08/23 03:03:48;;;;;;;10.13;9.03;;;;;;;;;;5074650;28;20969;-67
2023/08/23 03:06:16;;;;;;;14.13;9.20;;;;;;;;;;5074292;28;20521;-68
2023/08/23 03:08:44;;;;;;;13.30;9.93;;;;;;;;;;5074918;28;20538;-68
2023/08/23 03:11:11;;;;;;;10.33;9.33;;;;;;;;;;5074489;28;20508;-67
2023/08/23 03:13:39;;;;;;;10.23;8.30;;;;;;;;;;5074602;28;20590;-68
2023/08/23 03:16:06;;;;;;;12.50;10.10;;;;;;;;;;5074728;28;20526;-67
2023/08/23 03:18:33;;;;;;;15.57;9.73;;;;;;;;;;5074550;28;20498;-68
2023/08/23 03:21:00;;;;;;;13.63;10.43;;;;;;;;;;5074726;28;20477;-68
2023/08/23 03:23:27;;;;;;;11.90;9.33;;;;;;;;;;5074205;28;20442;-68
2023/08/23 03:25:56;;;;;;;15.67;10.03;;;;;;;;;;5074697;28;20479;-67
2023/08/23 03:28:23;;;;;;;11.10;9.83;;;;;;;;;;5074445;28;20442;-68
2023/08/23 03:30:50;;;;;;;13.13;9.73;;;;;;;;;;5074437;28;20521;-68
2023/08/23 03:33:18;;;;;;;13.43;10.30;;;;;;;;;;5073865;28;20483;-68
2023/08/23 03:35:45;;;;;;;14.00;10.50;;;;;;;;;;5074917;28;20521;-67
2023/08/23 03:38:12;;;;;;;11.43;10.33;;;;;;;;;;5074535;28;20532;-67
2023/08/23 03:40:40;;;;;;;10.43;9.43;;;;;;;;;;5074031;28;20443;-67
2023/08/23 03:43:08;;;;;;;11.60;10.37;;;;;;;;;;5074232;28;20448;-69
2023/08/23 03:45:35;;;;;;;12.53;10.27;;;;;;;;;;5074857;28;20463;-68
2023/08/23 03:48:05;;;;;;;11.33;10.23;;;;;;;;;;5074132;28;20443;-67
2023/08/23 03:50:32;;;;;;;10.40;9.17;;;;;;;;;;5073741;28;20451;-68
2023/08/23 03:52:59;;;;;;;10.10;8.87;;;;;;;;;;5074013;28;20579;-68
2023/08/23 03:55:26;;;;;;;10.37;9.37;;;;;;;;;;5073949;28;20516;-68
2023/08/23 03:57:54;;;;;;;10.70;9.60;;;;;;;;;;5073847;28;20517;-68
2023/08/23 04:00:22;;;;;;;12.20;9.53;;;;;;;;;;5082140;28;20445;-67
2023/08/23 04:02:49;;;;;;;11.50;10.13;;;;;;;;;;5093698;28;20479;-67
2023/08/23 04:05:17;;;;;;;11.10;9.93;;;;;;;;;;5093683;28;20516;-67
2023/08/23 04:07:44;;;;;;;12.00;9.70;;;;;;;;;;5093802;28;20437;-68
2023/08/23 04:10:11;;;;;;;12.07;9.83;;;;;;;;;;5093715;28;20449;-67
2023/08/23 04:12:38;;;;;;;15.63;10.80;;;;;;;;;;5093453;28;20559;-67
2023/08/23 04:15:06;;;;;;;13.67;10.83;;;;;;;;;;5093539;28;20438;-68
2023/08/23 04:17:35;;;;;;;16.10;10.90;;;;;;;;;;5093029;28;20445;-67
2023/08/23 04:20:03;;;;;;;12.20;11.03;;;;;;;;;;5093304;28;20524;-67
2023/08/23 04:22:30;;;;;;;13.27;11.53;;;;;;;;;;5093369;28;20447;-67
2023/08/23 04:24:58;;;;;;;12.00;10.90;;;;;;;;;;5093600;28;20445;-67
2023/08/23 04:27:25;;;;;;;14.37;12.87;;;;;;;;;;5093712;28;20453;-67
2023/08/23 04:29:52;;;;;;;16.90;11.97;;;;;;;;;;5093056;28;20529;-67
2023/08/23 04:32:19;;;;;;;18.20;12.97;;;;;;;;;;5093071;28;20439;-67
2023/08/23 04:34:48;;;;;;;15.57;14.00;;;;;;;;;;5093343;28;20531;-68
2023/08/23 04:37:15;;;;;;;17.83;14.30;;;;;;;;;;5093372;28;20445;-67
2023/08/23 04:39:42;;;;;;;15.33;13.73;;;;;;;;;;5093065;28;20440;-67
2023/08/23 04:42:10;;;;;;;14.40;13.00;;;;;;;;;;5093317;28;20533;-67
2023/08/23 04:44:37;;;;;;;14.80;13.53;;;;;;;;;;5093136;28;20528;-68
2023/08/23 04:47:04;;;;;;;18.33;15.53;;;;;;;;;;5092733;28;20553;-67
2023/08/23 04:49:31;;;;;;;16.43;14.93;;;;;;;;;;5092872;28;20882;-67
2023/08/23 04:52:00;;;;;;;15.77;14.17;;;;;;;;;;5093118;28;20535;-67
2023/08/23 04:54:27;;;;;;;16.00;14.47;;;;;;;;;;5092763;28;20485;-67
2023/08/23 04:56:54;;;;;;;17.57;14.80;;;;;;;;;;5092830;28;20443;-68
2023/08/23 04:59:21;;;;;;;16.53;14.93;;;;;;;;;;5092822;28;20444;-66
2023/08/23 05:01:49;;;;;;;15.80;13.90;;;;;;;;;;5092697;28;20481;-66
2023/08/23 05:04:16;;;;;;;17.07;15.47;;;;;;;;;;5092905;28;20448;-65
2023/08/23 05:06:43;;;;;;;15.93;14.53;;;;;;;;;;5092986;28;20477;-65
2023/08/23 05:09:12;;;;;;;15.83;14.23;;;;;;;;;;5092804;28;20442;-65
2023/08/23 05:11:39;;;;;;;15.67;14.10;;;;;;;;;;5092912;28;20444;-66
2023/08/23 05:14:06;;;;;;;15.23;13.90;;;;;;;;;;5092830;28;20482;-65
2023/08/23 05:16:33;;;;;;;15.97;14.47;;;;;;;;;;5092904;28;20434;-65
2023/08/23 05:19:01;;;;;;;18.10;14.20;;;;;;;;;;5092864;28;20454;-65
2023/08/23 05:21:28;;;;;;;17.50;13.97;;;;;;;;;;5092674;28;20905;-65
2023/08/23 05:23:55;;;;;;;17.70;15.33;;;;;;;;;;5093342;28;20555;-65
2023/08/23 05:26:24;;;;;;;17.80;13.27;;;;;;;;;;5092508;28;20432;-65
2023/08/23 05:28:51;;;;;;;16.33;13.77;;;;;;;;;;5092879;28;20515;-65
2023/08/23 05:31:18;;;;;;;16.30;14.30;;;;;;;;;;5096667;28;20534;-66
2023/08/23 05:33:45;;;;;;;17.70;14.17;;;;;;;;;;5096540;28;20486;-66
2023/08/23 05:36:12;;;;;;;14.63;13.13;;;;;;;;;;5095579;28;20505;-65
2023/08/23 05:38:39;;;;;;;15.77;14.13;;;;;;;;;;5096789;28;20861;-65
2023/08/23 05:41:07;;;;;;;14.67;13.07;;;;;;;;;;5096793;28;20464;-65
2023/08/23 05:43:35;;;;;;;15.70;13.27;;;;;;;;;;5096974;28;20456;-65
2023/08/23 05:46:03;;;;;;;14.57;13.10;;;;;;;;;;5096501;28;20465;-66
2023/08/23 05:48:34;;;;;;;14.87;12.83;;;;;;;;;;5096268;28;20884;-65
2023/08/23 05:51:02;;;;;;;15.43;13.73;;;;;;;;;;5096105;28;20425;-65
2023/08/23 05:53:29;;;;;;;16.40;14.53;;;;;;;;;;5096841;28;20520;-65
2023/08/23 05:55:56;;;;;;;16.07;14.40;;;;;;;;;;5096261;28;20484;-66
2023/08/23 05:58:25;;;;;;;13.93;12.43;;;;;;;;;;5096052;28;20897;-66
2023/08/23 06:00:55;;;;;;;16.27;14.50;;;;;;;;;;5095802;28;20993;-65
2023/08/23 06:03:22;;;;;;;15.93;13.57;;;;;;;;;;5096005;28;20430;-65
2023/08/23 06:05:53;;;;;;;16.27;14.67;;;;;;;;;;5096412;28;20438;-65
2023/08/23 06:08:21;;;;;;;22.60;13.37;;;;;;;;;;5095559;28;20426;-65
2023/08/23 06:10:48;;;;;;;16.57;14.10;;;;;;;;;;5095411;28;20530;-66
2023/08/23 06:13:15;;;;;;;18.30;15.47;;;;;;;;;;5095299;28;20559;-65
2023/08/23 06:15:42;;;;;;;24.27;15.90;;;;;;;;;;5095872;28;20778;-65
2023/08/23 06:18:11;;;;;;;16.37;14.60;;;;;;;;;;5095948;28;20537;-65
2023/08/23 06:20:39;;;;;;;17.77;15.30;;;;;;;;;;5095958;28;20447;-65
2023/08/23 06:23:06;;;;;;;15.10;13.30;;;;;;;;;;5095645;28;20528;-65
2023/08/23 06:25:33;;;;;;;21.53;13.10;;;;;;;;;;5095720;28;20438;-65
2023/08/23 06:28:01;;;;;;;19.23;13.50;;;;;;;;;;5095814;28;20441;-65
2023/08/23 06:30:28;;;;;;;15.37;13.70;;;;;;;;;;5095956;28;20444;-66
2023/08/23 06:32:55;;;;;;;16.30;13.23;;;;;;;;;;5095556;28;20468;-65
2023/08/23 06:35:26;;;;;;;16.30;14.60;;;;;;;;;;5095385;28;20439;-65
2023/08/23 06:37:53;;;;;;;14.77;13.30;;;;;;;;;;5094919;28;20495;-66
2023/08/23 06:40:20;;;;;;;15.67;12.87;;;;;;;;;;5094970;28;21003;-65
2023/08/23 06:42:47;;;;;;;14.87;13.37;;;;;;;;;;5094540;28;20440;-66
2023/08/23 06:45:14;;;;;;;13.83;11.83;;;;;;;;;;5095635;28;20435;-66
2023/08/23 06:47:42;;;;;;;16.30;13.57;;;;;;;;;;5095490;28;20449;-66
2023/08/23 06:50:09;;;;;;;17.90;14.20;;;;;;;;;;5095572;28;20445;-66
2023/08/23 06:52:38;;;;;;;20.83;16.53;;;;;;;;;;5095150;28;20535;-65
2023/08/23 06:55:06;;;;;;;16.97;14.50;;;;;;;;;;5094693;28;20604;-64
2023/08/23 06:57:33;;;;;;;17.53;13.60;;;;;;;;;;5095295;28;20932;-64
2023/08/23 07:00:00;;;;;;;14.77;13.17;;;;;;;;;;5095361;28;20461;-64
2023/08/23 07:02:28;;;;;;;14.87;13.20;;;;;;;;;;5095158;28;20446;-66
2023/08/23 07:04:55;;;;;;;18.80;12.53;;;;;;;;;;5095080;28;20441;-64
2023/08/23 07:07:23;;;;;;;20.57;12.10;;;;;;;;;;5094331;28;20536;-65
2023/08/23 07:09:51;;;;;;;16.63;13.40;;;;;;;;;;5095036;28;20528;-64
2023/08/23 07:12:18;;;;;;;15.67;13.53;;;;;;;;;;5095002;28;20530;-65
2023/08/23 07:14:49;;;;;;;15.60;13.33;;;;;;;;;;5094968;28;20485;-65
2023/08/23 07:17:16;;;;;;;16.13;13.30;;;;;;;;;;5095093;28;20436;-65
2023/08/23 07:19:43;;;;;;;20.93;12.70;;;;;;;;;;5094673;28;20891;-65
2023/08/23 07:22:11;;;;;;;15.70;12.00;;;;;;;;;;5094771;28;20519;-65
2023/08/23 07:24:38;;;;;;;15.63;13.93;;;;;;;;;;5094841;28;20515;-65
2023/08/23 07:27:07;;;;;;;16.93;13.17;;;;;;;;;;5080206;28;20535;-66
2023/08/23 07:29:36;;;;;;;16.80;12.83;;;;;;;;;;5074955;28;20455;-66
2023/08/23 07:32:04;;;;;;;15.87;13.87;;;;;;;;;;5074084;28;20466;-65
2023/08/23 07:34:31;;;;;;;18.53;13.40;;;;;;;;;;5074398;28;20478;-65
2023/08/23 07:36:58;;;;;;;18.00;13.70;;;;;;;;;;5074241;28;20450;-66
2023/08/23 07:39:27;;;;;;;17.73;11.60;;;;;;;;;;5074056;28;20526;-66
2023/08/23 07:41:55;;;;;;;13.93;11.93;;;;;;;;;;5074413;28;20438;-66
2023/08/23 07:44:23;;;;;;;13.63;12.07;;;;;;;;;;5074411;28;20445;-66
2023/08/23 07:46:50;;;;;;;13.87;12.47;;;;;;;;;;5073597;28;20526;-66
2023/08/23 07:49:18;;;;;;;17.07;11.80;;;;;;;;;;5073845;28;20938;-66
2023/08/23 07:51:45;;;;;;;14.37;12.90;;;;;;;;;;5074414;28;20486;-65
2023/08/23 07:54:13;;;;;;;11.80;10.60;;;;;;;;;;5073579;28;20574;-65
2023/08/23 07:56:40;;;;;;;13.53;11.77;;;;;;;;;;5073605;28;20526;-65
2023/08/23 07:59:07;;;;;;;16.17;13.00;;;;;;;;;;5073834;28;20802;-64
2023/08/23 08:01:36;;;;;;;19.07;11.60;;;;;;;;;;5073901;28;20539;-65
2023/08/23 08:04:03;;;;;;;12.70;11.37;;;;;;;;;;5073827;28;20955;-64
2023/08/23 08:06:30;;;;;;;14.90;10.93;;;;;;;;;;5082167;28;20447;-65
2023/08/23 08:08:57;;;;;;;16.80;9.83;;;;;;;;;;5093837;28;20549;-65
2023/08/23 08:11:24;;;;;;;12.90;8.87;;;;;;;;;;5094426;28;20482;-64
2023/08/23 08:13:51;;;;;;;15.73;10.10;;;;;;;;;;5093803;28;20578;-65
2023/08/23 08:16:19;;;;;;;11.77;9.23;;;;;;;;;;5093662;28;20438;-65
2023/08/23 08:18:47;;;;;;;8.93;8.13;;;;;;;;;;5093834;28;20470;-65
2023/08/23 08:21:14;;;;;;;13.83;7.90;;;;;;;;;;5093780;28;20434;-65
2023/08/23 08:23:42;;;;;;;10.40;9.10;;;;;;;;;;5093752;28;20549;-65
2023/08/23 08:26:11;;;;;;;13.70;8.07;;;;;;;;;;5093750;28;20492;-65
2023/08/23 08:28:42;;;;;;;10.77;8.40;;;;;;;;;;5083237;28;20468;-65
2023/08/23 08:31:09;;;;;;;10.23;7.70;;;;;;;;;;5073060;28;20439;-65
2023/08/23 08:33:37;;;;;;;9.90;7.67;;;;;;;;;;5073011;28;20464;-65
2023/08/23 08:36:05;;;;;;;16.33;9.00;;;;;;;;;;5073467;28;20527;-65
2023/08/23 08:38:32;;;;;;;9.63;7.70;;;;;;;;;;5073292;28;20790;-66
2023/08/23 08:41:00;;;;;;;8.80;7.13;;;;;;;;;;5073292;28;20444;-63
2023/08/23 08:43:27;;;;;;;8.27;7.30;;;;;;;;;;5073243;28;20948;-63
2023/08/23 08:45:54;;;;;;;10.43;8.17;;;;;;;;;;5073018;28;20437;-63
2023/08/23 08:48:21;;;;;;;9.47;6.80;;;;;;;;;;5072853;28;20531;-64
2023/08/23 08:50:49;;;;;;;7.30;5.90;;;;;;;;;;5073289;28;20585;-63
2023/08/23 08:53:19;;;;;;;7.63;5.17;;;;;;;;;;5072794;28;20559;-62
2023/08/23 08:55:46;;;;;;;6.77;4.70;;;;;;;;;;5073602;28;20567;-62
2023/08/23 08:58:19;;;;;;;12.60;6.50;;;;;;;;;;5072905;28;20446;-63
2023/08/23 09:00:47;;;;;;;8.93;6.60;;;;;;;;;;5073237;28;20436;-62
2023/08/23 09:03:14;;;;;;;7.40;5.97;;;;;;;;;;5073029;28;20444;-63
2023/08/23 09:05:42;;;;;;;8.50;6.60;;;;;;;;;;5072654;28;20444;-62
2023/08/23 09:08:09;;;;;;;8.03;5.83;;;;;;;;;;5073016;28;20484;-63
2023/08/23 09:10:38;;;;;;;9.27;7.77;;;;;;;;;;5072622;28;20523;-61
2023/08/23 09:13:05;;;;;;;9.43;7.07;;;;;;;;;;5072796;28;20925;-62
2023/08/23 09:15:33;;;;;;;12.00;6.57;;;;;;;;;;5072622;28;20494;-62
2023/08/23 09:18:00;;;;;;;9.97;6.53;;;;;;;;;;5072889;28;20543;-62
2023/08/23 09:20:27;;;;;;;7.60;6.80;;;;;;;;;;5072555;28;20429;-63
2023/08/23 09:22:55;;;;;;;6.70;5.63;;;;;;;;;;5073004;28;20544;-62
2023/08/23 09:25:23;;;;;;;8.13;5.57;;;;;;;;;;5072434;28;20445;-62
2023/08/23 09:27:53;;;;;;;9.80;5.60;;;;;;;;;;5072356;28;20546;-63
2023/08/23 09:30:21;;;;;;;18.50;6.10;;;;;;;;;;5073391;28;20517;-62
2023/08/23 09:32:48;;;;;;;9.03;6.00;;;;;;;;;;5072941;28;20930;-63
2023/08/23 09:35:16;;;;;;;7.87;5.63;;;;;;;;;;5072430;28;20473;-63
2023/08/23 09:37:43;;;;;;;9.40;5.77;;;;;;;;;;5072775;28;20543;-62
2023/08/23 09:40:20;;;;;;;7.70;6.10;;;;;;;;;;5072656;28;20470;-62
2023/08/23 09:42:48;;;;;;;5.77;4.30;;;;;;;;;;5072757;28;20528;-62
2023/08/23 09:45:18;;;;;;;11.30;5.87;;;;;;;;;;5072684;28;20879;-62
2023/08/23 09:47:47;;;;;;;4.87;4.37;;;;;;;;;;5073057;28;20439;-62
2023/08/23 09:50:15;;;;;;;10.07;5.77;;;;;;;;;;5072594;28;20863;-62
2023/08/23 09:52:44;;;;;;;8.77;4.80;;;;;;;;;;5072869;28;20441;-62
2023/08/23 09:55:12;;;;;;;6.80;4.40;;;;;;;;;;5072393;28;20951;-62
2023/08/23 09:57:39;;;;;;;8.00;4.63;;;;;;;;;;5072485;28;20437;-62
2023/08/23 10:00:07;;;;;;;5.20;3.43;;;;;;;;;;5072487;28;20523;-62
2023/08/23 10:02:37;;;;;;;4.60;3.13;;;;;;;;;;5073106;28;20436;-62
2023/08/23 10:05:06;;;;;;;6.93;3.10;;;;;;;;;;5072493;28;20470;-62
2023/08/23 10:07:34;;;;;;;8.03;4.60;;;;;;;;;;5072955;28;20476;-62
2023/08/23 10:10:03;;;;;;;4.43;4.00;;;;;;;;;;5071973;28;20445;-62
2023/08/23 10:12:31;;;;;;;5.83;2.60;;;;;;;;;;5072027;28;20478;-62
2023/08/23 10:14:59;;;;;;;7.60;4.20;;;;;;;;;;5072197;28;20564;-62
2023/08/23 10:17:26;;;;;;;5.60;3.10;;;;;;;;;;5074460;28;20467;-63
2023/08/23 10:19:55;;;;;;;8.30;4.43;;;;;;;;;;5075691;28;20769;-62
2023/08/23 10:22:22;;;;;;;7.53;4.67;;;;;;;;;;5075456;28;20480;-62
2023/08/23 10:24:49;;;;;;;4.37;3.90;;;;;;;;;;5075329;28;20523;-62
2023/08/23 10:27:17;;;;;;;6.23;3.90;;;;;;;;;;5075673;28;20532;-62
2023/08/23 10:29:50;;;;;;;8.00;4.20;;;;;;;;;;5075503;28;20470;-62
2023/08/23 10:32:18;;;;;;;6.10;3.03;;;;;;;;;;5075840;28;20962;-62
2023/08/23 10:34:45;;;;;;;3.47;3.17;;;;;;;;;;5075412;28;20486;-62
2023/08/23 10:37:18;;;;;;;5.73;2.90;;;;;;;;;;5075690;28;20524;-62
2023/08/23 10:39:49;;;;;;;6.00;3.10;;;;;;;;;;5075944;28;20435;-62
2023/08/23 10:42:16;;;;;;;3.60;3.07;;;;;;;;;;5075031;28;20434;-62
2023/08/23 10:44:47;;;;;;;3.73;2.93;;;;;;;;;;5075640;28;20457;-62
2023/08/23 10:47:16;;;;;;;7.97;3.07;;;;;;;;;;5075460;28;20435;-62
2023/08/23 10:49:43;;;;;;;4.80;2.80;;;;;;;;;;5074955;28;20442;-62
2023/08/23 10:52:11;;;;;;;5.93;3.67;;;;;;;;;;5075039;28;20533;-62
2023/08/23 10:54:39;;;;;;;8.40;2.60;;;;;;;;;;5075016;28;20842;-62
2023/08/23 10:57:06;;;;;;;7.07;2.60;;;;;;;;;;5075701;28;20434;-62
2023/08/23 10:59:34;;;;;;;3.40;2.17;;;;;;;;;;5074733;28;20960;-62
2023/08/23 11:02:01;;;;;;;2.23;2.03;;;;;;;;;;5075030;28;20525;-62
2023/08/23 11:04:29;;;;;;;3.53;2.30;;;;;;;;;;5074684;28;20450;-62
2023/08/23 11:06:57;;;;;;;2.80;2.20;;;;;;;;;;5074731;28;20444;-62
2023/08/23 11:09:24;;;;;;;2.63;2.30;;;;;;;;;;5074930;28;21105;-62
2023/08/23 11:11:53;;;;;;;5.50;2.50;;;;;;;;;;5074920;28;20438;-62
2023/08/23 11:14:20;;;;;;;6.97;6.27;;;;;;;;;;5073742;28;20537;-63
2023/08/23 11:16:48;;;;;;;3.33;2.37;;;;;;;;;;5074457;28;20443;-67
2023/08/23 11:19:15;;;;;;;8.73;3.30;;;;;;;;;;5074844;28;20444;-62
2023/08/23 11:21:42;;;;;;;3.30;2.70;;;;;;;;;;5074884;28;20546;-61
2023/08/23 11:24:10;;;;;;;4.07;3.30;;;;;;;;;;5073812;28;20455;-62
2023/08/23 11:26:37;;;;;;;3.33;2.83;;;;;;;;;;5073868;28;20927;-63
2023/08/23 11:29:06;;;;;;;5.73;2.53;;;;;;;;;;5074073;28;20534;-62
2023/08/23 11:31:33;;;;;;;3.20;2.40;;;;;;;;;;5073995;28;20493;-63
2023/08/23 11:34:01;;;;;;;2.70;2.50;;;;;;;;;;5074768;28;20446;-63
2023/08/23 11:36:29;;;;;;;2.67;2.47;;;;;;;;;;5074228;28;20483;-63
2023/08/23 11:38:56;;;;;;;2.90;2.50;;;;;;;;;;5074189;28;20502;-61
2023/08/23 11:41:29;;;;;;;4.70;2.97;;;;;;;;;;5073790;28;20446;-61
2023/08/23 11:43:56;;;;;;;3.13;2.30;;;;;;;;;;5074382;28;20793;-61
2023/08/23 11:46:25;;;;;;;3.00;2.70;;;;;;;;;;5073912;28;20444;-61
2023/08/23 11:48:52;;;;;;;4.00;3.70;;;;;;;;;;5074180;28;20460;-61
2023/08/23 11:51:19;;;;;;;3.40;3.10;;;;;;;;;;5073445;28;20446;-61
2023/08/23 11:53:51;;;;;;;6.33;4.27;;;;;;;;;;5077365;28;20965;-61
2023/08/23 11:56:18;;;;;;;2.80;2.60;;;;;;;;;;5093706;28;20569;-62
2023/08/23 11:58:45;;;;;;;8.83;3.03;;;;;;;;;;5093918;28;20932;-62
2023/08/23 12:01:13;;;;;;;4.60;2.53;;;;;;;;;;5094099;28;20439;-62
2023/08/23 12:03:41;;;;;;;3.80;2.60;;;;;;;;;;5094070;28;20574;-62
2023/08/23 12:06:08;;;;;;;4.10;2.20;;;;;;;;;;5094181;28;20476;-62
2023/08/23 12:08:36;;;;;;;3.30;2.67;;;;;;;;;;5094287;28;20439;-62
2023/08/23 12:11:03;;;;;;;3.00;2.70;;;;;;;;;;5093906;28;20446;-62
2023/08/23 12:13:31;;;;;;;4.50;2.47;;;;;;;;;;5094347;28;20804;-62
2023/08/23 12:15:58;;;;;;;2.63;2.43;;;;;;;;;;5093199;28;20561;-62
2023/08/23 12:18:25;;;;;;;3.30;2.60;;;;;;;;;;5093551;28;20449;-62
2023/08/23 12:20:54;;;;;;;4.50;1.80;;;;;;;;;;5093576;28;20439;-62
2023/08/23 12:23:21;;;;;;;3.00;2.50;;;;;;;;;;5094124;28;20525;-62
2023/08/23 12:25:48;;;;;;;3.60;2.40;;;;;;;;;;5093758;28;20537;-62
2023/08/23 12:28:16;;;;;;;2.10;1.90;;;;;;;;;;5093625;28;20484;-62
2023/08/23 12:30:43;;;;;;;3.37;2.40;;;;;;;;;;5093354;28;20442;-62
2023/08/23 12:33:10;;;;;;;2.73;2.03;;;;;;;;;;5093755;28;20467;-62
2023/08/23 12:35:37;;;;;;;2.90;1.87;;;;;;;;;;5094069;28;20478;-63
2023/08/23 12:38:06;;;;;;;3.43;2.20;;;;;;;;;;5093218;28;20428;-64
2023/08/23 12:40:33;;;;;;;2.40;2.20;;;;;;;;;;5092971;28;20867;-63
2023/08/23 12:43:00;;;;;;;2.33;2.13;;;;;;;;;;5093665;28;20446;-61
2023/08/23 12:45:27;;;;;;;4.13;2.90;;;;;;;;;;5093074;28;20541;-61
2023/08/23 12:47:54;;;;;;;2.67;2.47;;;;;;;;;;5093088;28;20789;-63
2023/08/23 12:50:22;;;;;;;5.60;2.70;;;;;;;;;;5093161;28;20457;-62
2023/08/23 12:52:49;;;;;;;2.10;1.90;;;;;;;;;;5092756;28;20482;-62
2023/08/23 12:55:17;;;;;;;3.20;2.10;;;;;;;;;;5092980;28;20476;-62
2023/08/23 12:57:45;;;;;;;3.70;1.97;;;;;;;;;;5092885;28;20952;-61
2023/08/23 13:00:14;;;;;;;3.97;2.43;;;;;;;;;;5094070;28;20531;-61
2023/08/23 13:02:41;;;;;;;2.27;2.07;;;;;;;;;;5093407;28;20462;-62
2023/08/23 13:05:08;;;;;;;3.70;1.87;;;;;;;;;;5093873;28;20434;-62
2023/08/23 13:07:36;;;;;;;2.67;2.47;;;;;;;;;;5093098;28;20444;-62
2023/08/23 13:10:03;;;;;;;3.37;1.97;;;;;;;;;;5093422;28;20752;-62
2023/08/23 13:12:32;;;;;;;7.37;2.60;;;;;;;;;;5093071;28;20431;-63
2023/08/23 13:15:00;;;;;;;2.10;1.90;;;;;;;;;;5092653;28;20450;-61
2023/08/23 13:17:27;;;;;;;2.33;1.73;;;;;;;;;;5092921;28;20529;-62
2023/08/23 13:19:54;;;;;;;2.33;2.00;;;;;;;;;;5093621;28;20552;-62
2023/08/23 13:22:22;;;;;;;1.87;1.70;;;;;;;;;;5092882;28;20443;-62
2023/08/23 13:24:50;;;;;;;2.30;2.10;;;;;;;;;;5092961;28;20562;-62
2023/08/23 13:27:17;;;;;;;2.90;2.20;;;;;;;;;;5092790;28;20448;-62
2023/08/23 13:29:46;;;;;;;6.20;2.10;;;;;;;;;;5092741;28;20446;-62
2023/08/23 13:32:13;;;;;;;4.10;1.97;;;;;;;;;;5092868;28;20512;-62
2023/08/23 13:34:40;;;;;;;3.30;2.20;;;;;;;;;;5092675;28;20619;-62
2023/08/23 13:37:07;;;;;;;2.90;2.10;;;;;;;;;;5092765;28;20578;-62
2023/08/23 13:39:35;;;;;;;6.70;2.17;;;;;;;;;;5092746;28;20470;-62
2023/08/23 13:42:02;;;;;;;3.10;2.00;;;;;;;;;;5093191;28;20431;-63
2023/08/23 13:44:29;;;;;;;2.07;1.80;;;;;;;;;;5092727;28;20529;-63
2023/08/23 13:46:59;;;;;;;2.70;1.90;;;;;;;;;;5092243;28;20486;-62
2023/08/23 13:49:26;;;;;;;1.83;1.73;;;;;;;;;;5092702;28;20478;-63
2023/08/23 13:51:53;;;;;;;1.93;1.70;;;;;;;;;;5082359;28;20945;-64
2023/08/23 13:54:20;;;;;;;2.30;2.10;;;;;;;;;;5076282;28;20514;-63
2023/08/23 13:56:47;;;;;;;2.50;2.30;;;;;;;;;;5075659;28;20479;-63
2023/08/23 13:59:15;;;;;;;3.10;2.80;;;;;;;;;;5076277;28;20791;-63
2023/08/23 14:01:42;;;;;;;5.77;3.17;;;;;;;;;;5076114;28;20571;-64
2023/08/23 14:04:10;;;;;;;3.63;1.90;;;;;;;;;;5075853;28;20516;-63
2023/08/23 14:06:37;;;;;;;2.93;2.70;;;;;;;;;;5075856;28;20798;-64
2023/08/23 14:09:05;;;;;;;3.30;2.27;;;;;;;;;;5076130;28;20516;-63
2023/08/23 14:11:34;;;;;;;3.93;1.93;;;;;;;;;;5075685;28;20535;-64
2023/08/23 14:14:01;;;;;;;3.10;1.83;;;;;;;;;;5075952;28;20524;-63
2023/08/23 14:16:31;;;;;;;3.00;2.53;;;;;;;;;;5075926;28;20483;-63
2023/08/23 14:18:58;;;;;;;4.23;2.33;;;;;;;;;;5075954;28;20433;-63
2023/08/23 14:21:27;;;;;;;2.60;1.93;;;;;;;;;;5075979;28;20436;-63
2023/08/23 14:23:54;;;;;;;2.27;2.07;;;;;;;;;;5075360;28;20545;-64
2023/08/23 14:26:21;;;;;;;2.83;2.00;;;;;;;;;;5075870;28;20539;-63
2023/08/23 14:28:48;;;;;;;4.80;2.60;;;;;;;;;;5075481;28;20453;-64
2023/08/23 14:31:16;;;;;;;4.40;2.17;;;;;;;;;;5075034;28;20440;-63
2023/08/23 14:33:43;;;;;;;5.70;2.10;;;;;;;;;;5075100;28;20450;-63